Terminal Aerodrome Forecast
Issued by NWS

Home | Current Version | Previous Version | Text Only | Print | Product List | Glossary On
Versions: 1 2 3 4 5 6 7 8 9 10 11 12 13 14 15 16 17
607
FTAK31 PAJN 060523
TAFAYA
TAF
PAYA 060523Z 0606/0706 12015G23KT 2SM RA BR SCT008 BKN012 OVC025
      WS020/14050KT
     FM060900 12012G20KT 2SM RA BR SCT005 BKN012 OVC020
      WS020/15040KT
     FM061800 14013KT 5SM RA BR SCT005 BKN012 OVC020
     FM062000 18011KT 6SM -SHRA BR BKN017 OVC025
     FM070400 16007KT P6SM -SHRA BKN025 OVC035
      AMD LTD TO CLD VIS AND WIND 0606/0609=

USA.gov is the U.S. government's official web portal to all federal, state and local government web resources and services.